createdAt,value
2019-04-22T00:01:56.953Z,3.02
2019-04-22T00:07:22.965Z,3.00
2019-04-22T00:12:34.837Z,3.20
2019-04-22T00:17:48.248Z,3.37
2019-04-22T00:22:38.047Z,3.25
2019-04-22T00:27:47.904Z,3.40
2019-04-22T00:33:03.361Z,3.40
2019-04-22T00:38:11.104Z,3.10
2019-04-22T00:43:16.506Z,3.27
2019-04-22T00:48:37.985Z,3.30
2019-04-22T00:53:34.212Z,3.27
2019-04-22T00:58:36.528Z,3.27
2019-04-22T01:03:44.201Z,3.67
2019-04-22T01:08:54.581Z,3.33
2019-04-22T01:13:52.159Z,3.50
2019-04-22T01:18:55.151Z,3.25
2019-04-22T01:23:57.542Z,3.62
2019-04-22T01:29:00.926Z,3.37
2019-04-22T01:34:05.550Z,3.60
2019-04-22T01:39:25.100Z,3.17
2019-04-22T01:44:33.273Z,3.50
2019-04-22T01:59:41.759Z,3.58
2019-04-22T02:04:59.429Z,3.90
2019-04-22T02:10:07.324Z,3.60
2019-04-22T02:15:06.607Z,3.30
2019-04-22T02:20:13.648Z,3.60
2019-04-22T02:25:24.573Z,3.22
2019-04-22T02:30:36.393Z,4.05
2019-04-22T02:35:52.104Z,3.62
2019-04-22T02:40:58.698Z,3.33
2019-04-22T02:51:02.190Z,3.45
2019-04-22T02:56:12.929Z,3.62
2019-04-22T03:01:14.328Z,4.20
2019-04-22T03:06:29.641Z,3.98
2019-04-22T03:16:33.312Z,3.80
2019-04-22T03:21:31.204Z,4.53
2019-04-22T03:26:40.934Z,5.10
2019-04-22T03:52:18.666Z,4.37
2019-04-22T03:57:48.930Z,5.10
2019-04-22T04:02:45.739Z,4.00
2019-04-22T04:12:53.363Z,4.87
2019-04-22T04:28:24.554Z,4.45
2019-04-22T04:33:05.180Z,5.20
2019-04-22T04:38:05.118Z,4.20
2019-04-22T04:43:17.993Z,5.43
2019-04-22T04:48:36.983Z,4.37
2019-04-22T04:53:52.770Z,4.67
2019-04-22T04:58:47.767Z,4.72
2019-04-22T05:03:48.864Z,5.00
2019-04-22T05:29:13.874Z,5.53
2019-04-22T05:34:19.462Z,5.00
2019-04-22T05:39:15.735Z,5.47
2019-04-22T05:44:26.627Z,5.60
2019-04-22T05:49:28.961Z,5.90
2019-04-22T05:54:34.797Z,6.13
2019-04-22T05:59:45.945Z,5.62
2019-04-22T06:04:55.460Z,5.95
2019-04-22T06:09:57.761Z,6.05
2019-04-22T06:14:58.708Z,5.58
2019-04-22T06:20:03.038Z,5.40
2019-04-22T06:25:20.607Z,6.17
2019-04-22T06:30:21.801Z,5.28
2019-04-22T06:40:41.733Z,4.97
2019-04-22T06:45:39.718Z,5.28
2019-04-22T06:50:49.783Z,5.10
2019-04-22T06:55:51.675Z,5.05
2019-04-22T07:01:06.151Z,4.33
2019-04-22T07:06:11.454Z,5.10
2019-04-22T07:11:06.285Z,4.87
2019-04-22T07:21:26.041Z,5.50
2019-04-22T07:26:29.192Z,5.08
2019-04-22T07:31:37.225Z,5.42
2019-04-22T07:41:51.405Z,4.80
2019-04-22T07:52:03.609Z,4.62
2019-04-22T07:57:15.097Z,4.47
2019-04-22T08:02:16.016Z,4.05
2019-04-22T08:07:18.086Z,4.28
2019-04-22T08:12:26.865Z,4.42
2019-04-22T08:22:37.559Z,4.87
2019-04-22T08:27:43.620Z,4.47
2019-04-22T08:32:46.345Z,3.90
2019-04-22T08:38:02.047Z,3.47
2019-04-22T08:43:07.491Z,3.17
2019-04-22T08:48:07.726Z,3.17
2019-04-22T08:53:16.121Z,5.60
2019-04-22T08:58:37.553Z,3.30
2019-04-22T09:03:25.926Z,3.10
2019-04-22T09:08:34.168Z,3.25
2019-04-22T09:13:43.408Z,2.83
2019-04-22T09:18:48.699Z,2.85
2019-04-22T09:23:57.175Z,3.83
2019-04-22T09:28:59.488Z,2.90
2019-04-22T09:33:59.094Z,2.80
2019-04-22T09:39:12.144Z,2.77
2019-04-22T09:44:08.149Z,2.85
2019-04-22T09:49:21.123Z,9.05
2019-04-22T09:54:30.990Z,3.25
2019-04-22T09:59:27.859Z,4.08
2019-04-22T10:04:39.517Z,3.35
2019-04-22T10:14:49.209Z,3.10
2019-04-22T10:19:56.132Z,2.80
2019-04-22T10:25:01.990Z,2.60
2019-04-22T10:30:04.156Z,2.40
2019-04-22T10:35:13.163Z,2.45
2019-04-22T10:40:28.485Z,2.25
2019-04-22T10:45:34.382Z,2.05
2019-04-22T10:50:43.706Z,2.33
2019-04-22T10:55:49.865Z,2.12
2019-04-22T11:00:56.136Z,2.50
2019-04-22T11:06:01.288Z,2.55
2019-04-22T11:11:18.894Z,2.40
2019-04-22T11:16:11.772Z,3.25
2019-04-22T11:21:15.958Z,2.83
2019-04-22T11:26:20.209Z,2.70
2019-04-22T11:31:24.471Z,3.00
2019-04-22T11:36:30.731Z,2.87
2019-04-22T11:41:35.998Z,3.15
2019-04-22T11:46:41.092Z,2.70
2019-04-22T11:51:45.748Z,3.00
2019-04-22T11:56:49.974Z,3.30
2019-04-22T12:01:55.098Z,3.50
2019-04-22T12:07:00.114Z,7.97
2019-04-22T12:12:05.723Z,3.35
2019-04-22T12:17:11.239Z,3.27
2019-04-22T12:22:15.545Z,2.80
2019-04-22T12:27:22.036Z,3.00
2019-04-22T12:32:25.631Z,3.58
2019-04-22T12:37:38.056Z,3.00
2019-04-22T12:42:37.293Z,2.45
2019-04-22T12:47:42.240Z,2.83
2019-04-22T12:52:54.694Z,3.45
2019-04-22T12:57:58.599Z,4.12
2019-04-22T13:03:01.042Z,2.77
2019-04-22T13:08:05.739Z,3.52
2019-04-22T13:13:11.283Z,2.42
2019-04-22T13:18:27.045Z,2.50
2019-04-22T13:23:22.178Z,2.65
2019-04-22T13:28:27.257Z,2.65
2019-04-22T13:33:32.882Z,2.80
2019-04-22T13:38:38.643Z,2.70
2019-04-22T13:43:43.022Z,2.70
2019-04-22T13:49:14.571Z,2.60
2019-04-22T13:59:10.142Z,3.00
2019-04-22T14:04:12.453Z,2.75
2019-04-22T14:09:18.615Z,2.60
2019-04-22T14:14:23.996Z,2.70
2019-04-22T14:19:29.790Z,2.70
2019-04-22T14:24:34.504Z,2.70
2019-04-22T14:29:39.797Z,2.60
2019-04-22T14:34:44.952Z,2.87
2019-04-22T14:39:49.210Z,2.98
2019-04-22T14:45:26.134Z,2.77
2019-04-22T14:50:22.360Z,3.55
2019-04-22T14:55:13.779Z,2.67
2019-04-22T15:00:15.870Z,2.67
2019-04-22T15:05:21.985Z,2.60
2019-04-22T15:10:26.591Z,2.67
2019-04-22T15:15:48.951Z,2.65
2019-04-22T15:20:54.382Z,3.00
2019-04-22T15:25:59.088Z,3.05
2019-04-22T15:31:03.686Z,3.10
2019-04-22T15:36:07.995Z,2.65
2019-04-22T15:41:16.681Z,2.60
2019-04-22T15:46:20.898Z,2.90
2019-04-22T15:51:25.156Z,3.35
2019-04-22T15:56:30.650Z,4.15
2019-04-22T16:01:37.803Z,3.45
2019-04-22T16:06:41.181Z,3.33
2019-04-22T16:11:45.847Z,3.30
2019-04-22T16:16:50.522Z,3.30
2019-04-22T16:22:01.426Z,3.83
2019-04-22T16:27:04.850Z,3.83
2019-04-22T16:32:09.607Z,4.28
2019-04-22T16:37:14.740Z,4.05
2019-04-22T16:42:33.285Z,3.95
2019-04-22T16:47:25.734Z,3.62
2019-04-22T16:52:30.320Z,4.85
2019-04-22T16:57:35.849Z,4.90
2019-04-22T17:03:06.738Z,4.65
2019-04-22T17:08:12.313Z,4.78
2019-04-22T17:13:20.931Z,6.30
2019-04-22T17:18:23.230Z,8.00
2019-04-22T17:23:27.720Z,9.00
2019-04-22T17:28:33.337Z,7.90
2019-04-22T17:33:39.101Z,7.08
2019-04-22T17:38:54.365Z,6.92
2019-04-22T17:44:12.235Z,6.97
2019-04-22T17:49:23.659Z,6.97
2019-04-22T17:54:30.717Z,6.75
2019-04-22T17:59:33.935Z,6.80
2019-04-22T18:04:20.223Z,7.87
2019-04-22T18:10:23.747Z,7.00
2019-04-22T18:14:54.124Z,6.87
2019-04-22T18:19:54.790Z,7.10
2019-04-22T18:24:58.397Z,7.35
2019-04-22T18:30:04.139Z,6.80
2019-04-22T18:35:14.110Z,7.95
2019-04-22T18:40:21.838Z,14.33
2019-04-22T18:45:42.188Z,8.48
2019-04-22T18:50:45.214Z,7.37
2019-04-22T18:56:01.696Z,7.40
2019-04-22T19:00:52.777Z,8.43
2019-04-22T19:06:29.431Z,7.37
2019-04-22T19:11:22.324Z,7.37
2019-04-22T19:16:36.152Z,6.87
2019-04-22T19:21:37.988Z,9.03
2019-04-22T19:26:50.344Z,7.50
2019-04-22T19:31:51.242Z,7.15
2019-04-22T19:36:59.306Z,6.58
2019-04-22T19:42:09.558Z,7.47
2019-04-22T19:47:28.526Z,6.17
2019-04-22T19:52:18.942Z,6.22
2019-04-22T19:57:17.680Z,6.05
2019-04-22T20:03:07.294Z,6.25
2019-04-22T20:08:07.367Z,20.80
2019-04-22T20:13:15.086Z,8.45
2019-04-22T20:18:26.999Z,6.60
2019-04-22T20:23:18.197Z,6.35
2019-04-22T20:28:31.089Z,6.50
2019-04-22T20:33:35.251Z,6.20
2019-04-22T20:38:42.537Z,5.97
2019-04-22T20:43:54.627Z,20.92
2019-04-22T20:48:54.808Z,7.85
2019-04-22T20:54:03.820Z,6.90
2019-04-22T20:59:02.120Z,6.55
2019-04-22T21:03:58.647Z,6.60
2019-04-22T21:09:18.038Z,7.28
2019-04-22T21:14:19.654Z,5.95
2019-04-22T21:19:38.238Z,7.12
2019-04-22T21:24:32.262Z,7.05
2019-04-22T21:29:33.426Z,7.33
2019-04-22T21:34:52.733Z,7.30
2019-04-22T21:39:46.604Z,6.90
2019-04-22T21:44:51.111Z,7.05
2019-04-22T21:50:26.106Z,7.40
2019-04-22T21:55:10.230Z,6.90
2019-04-22T22:00:25.000Z,8.18
2019-04-22T22:05:19.000Z,7.60
2019-04-22T22:10:29.688Z,7.85
2019-04-22T22:15:37.670Z,13.38
2019-04-22T22:20:45.351Z,8.08
2019-04-22T22:25:44.125Z,7.62
2019-04-22T22:35:59.626Z,8.55
2019-04-22T22:40:44.008Z,8.10
2019-04-22T22:46:05.951Z,8.15
2019-04-22T22:51:18.570Z,24.00
2019-04-22T22:56:25.354Z,8.58
2019-04-22T23:01:34.948Z,8.25
2019-04-22T23:06:40.652Z,8.50
2019-04-22T23:11:57.542Z,8.10
2019-04-22T23:16:35.436Z,8.45
2019-04-22T23:21:38.500Z,8.53
2019-04-22T23:27:10.183Z,9.33
2019-04-22T23:32:18.512Z,8.60
2019-04-22T23:37:28.943Z,8.90
2019-04-22T23:42:44.807Z,9.20
2019-04-22T23:47:41.167Z,9.10
2019-04-22T23:52:58.973Z,8.45
2019-04-22T23:58:05.067Z,8.90
